sensor_id;sensor_type;location;lat;lon;timestamp;P1;durP1;ratioP1;P2;durP2;ratioP2
17449;SDS011;8842;51.244;7.102;2023-06-14T00:02:23;11.30;;;10.70;;
17449;SDS011;8842;51.244;7.102;2023-06-14T00:07:34;11.27;;;10.67;;
17449;SDS011;8842;51.244;7.102;2023-06-14T00:12:39;12.00;;;11.30;;
17449;SDS011;8842;51.244;7.102;2023-06-14T00:17:43;11.10;;;10.50;;
17449;SDS011;8842;51.244;7.102;2023-06-14T00:22:55;11.70;;;11.00;;
17449;SDS011;8842;51.244;7.102;2023-06-14T00:27:59;11.63;;;10.93;;
17449;SDS011;8842;51.244;7.102;2023-06-14T00:33:11;11.23;;;10.63;;
17449;SDS011;8842;51.244;7.102;2023-06-14T00:38:15;11.50;;;10.90;;
17449;SDS011;8842;51.244;7.102;2023-06-14T00:43:19;15.73;;;10.70;;
17449;SDS011;8842;51.244;7.102;2023-06-14T00:48:23;11.33;;;10.70;;
17449;SDS011;8842;51.244;7.102;2023-06-14T00:53:28;11.30;;;10.60;;
17449;SDS011;8842;51.244;7.102;2023-06-14T00:58:42;11.90;;;10.90;;
17449;SDS011;8842;51.244;7.102;2023-06-14T01:03:46;10.97;;;10.37;;
17449;SDS011;8842;51.244;7.102;2023-06-14T01:09:03;11.10;;;10.50;;
17449;SDS011;8842;51.244;7.102;2023-06-14T01:14:09;11.33;;;10.73;;
17449;SDS011;8842;51.244;7.102;2023-06-14T01:19:15;11.40;;;10.70;;
17449;SDS011;8842;51.244;7.102;2023-06-14T01:24:21;11.27;;;10.50;;
17449;SDS011;8842;51.244;7.102;2023-06-14T01:29:26;11.83;;;11.13;;
17449;SDS011;8842;51.244;7.102;2023-06-14T01:34:38;11.80;;;11.00;;
17449;SDS011;8842;51.244;7.102;2023-06-14T01:39:42;12.90;;;12.10;;
17449;SDS011;8842;51.244;7.102;2023-06-14T01:44:57;11.47;;;10.57;;
17449;SDS011;8842;51.244;7.102;2023-06-14T01:50:02;11.17;;;10.57;;
17449;SDS011;8842;51.244;7.102;2023-06-14T01:55:14;12.23;;;11.20;;
17449;SDS011;8842;51.244;7.102;2023-06-14T02:00:26;11.70;;;10.90;;
17449;SDS011;8842;51.244;7.102;2023-06-14T02:05:30;11.63;;;10.93;;
17449;SDS011;8842;51.244;7.102;2023-06-14T02:10:34;11.77;;;11.07;;
17449;SDS011;8842;51.244;7.102;2023-06-14T02:15:38;11.43;;;10.73;;
17449;SDS011;8842;51.244;7.102;2023-06-14T02:20:44;11.80;;;11.00;;
17449;SDS011;8842;51.244;7.102;2023-06-14T02:25:56;12.00;;;11.30;;
17449;SDS011;8842;51.244;7.102;2023-06-14T02:31:00;11.33;;;10.63;;
17449;SDS011;8842;51.244;7.102;2023-06-14T02:36:12;11.53;;;10.93;;
17449;SDS011;8842;51.244;7.102;2023-06-14T02:41:16;12.07;;;11.13;;
17449;SDS011;8842;51.244;7.102;2023-06-14T02:46:20;11.57;;;10.97;;
17449;SDS011;8842;51.244;7.102;2023-06-14T02:51:24;12.03;;;11.23;;
17449;SDS011;8842;51.244;7.102;2023-06-14T02:56:28;11.97;;;11.10;;
17449;SDS011;8842;51.244;7.102;2023-06-14T03:01:33;10.73;;;10.13;;
17449;SDS011;8842;51.244;7.102;2023-06-14T03:06:45;11.10;;;10.50;;
17449;SDS011;8842;51.244;7.102;2023-06-14T03:11:51;11.13;;;10.53;;
17449;SDS011;8842;51.244;7.102;2023-06-14T03:17:03;11.33;;;10.57;;
17449;SDS011;8842;51.244;7.102;2023-06-14T03:22:08;11.53;;;10.83;;
17449;SDS011;8842;51.244;7.102;2023-06-14T03:27:22;10.73;;;10.13;;
17449;SDS011;8842;51.244;7.102;2023-06-14T03:32:26;11.50;;;10.80;;
17449;SDS011;8842;51.244;7.102;2023-06-14T03:37:30;11.10;;;10.50;;
17449;SDS011;8842;51.244;7.102;2023-06-14T03:42:34;10.87;;;10.27;;
17449;SDS011;8842;51.244;7.102;2023-06-14T03:47:38;11.30;;;10.60;;
17449;SDS011;8842;51.244;7.102;2023-06-14T03:52:42;11.47;;;10.87;;
17449;SDS011;8842;51.244;7.102;2023-06-14T03:57:46;11.43;;;10.70;;
17449;SDS011;8842;51.244;7.102;2023-06-14T04:02:58;12.10;;;11.30;;
17449;SDS011;8842;51.244;7.102;2023-06-14T04:08:02;11.67;;;10.97;;
17449;SDS011;8842;51.244;7.102;2023-06-14T04:13:07;11.73;;;11.00;;
17449;SDS011;8842;51.244;7.102;2023-06-14T04:18:13;12.10;;;11.40;;
17449;SDS011;8842;51.244;7.102;2023-06-14T04:23:17;12.60;;;11.63;;
17449;SDS011;8842;51.244;7.102;2023-06-14T04:28:21;12.70;;;11.90;;
17449;SDS011;8842;51.244;7.102;2023-06-14T04:33:27;12.60;;;11.80;;
17449;SDS011;8842;51.244;7.102;2023-06-14T04:38:31;13.67;;;12.67;;
17449;SDS011;8842;51.244;7.102;2023-06-14T04:43:37;13.43;;;12.53;;
17449;SDS011;8842;51.244;7.102;2023-06-14T04:48:41;12.80;;;12.00;;
17449;SDS011;8842;51.244;7.102;2023-06-14T04:53:45;11.60;;;11.00;;
17449;SDS011;8842;51.244;7.102;2023-06-14T04:58:49;11.90;;;11.30;;
17449;SDS011;8842;51.244;7.102;2023-06-14T05:03:53;11.90;;;11.27;;
17449;SDS011;8842;51.244;7.102;2023-06-14T05:08:57;12.20;;;11.50;;
17449;SDS011;8842;51.244;7.102;2023-06-14T05:14:02;12.10;;;11.50;;
17449;SDS011;8842;51.244;7.102;2023-06-14T05:19:06;11.93;;;11.23;;
17449;SDS011;8842;51.244;7.102;2023-06-14T05:24:10;12.93;;;12.00;;
17449;SDS011;8842;51.244;7.102;2023-06-14T05:29:14;11.30;;;10.70;;
17449;SDS011;8842;51.244;7.102;2023-06-14T05:34:18;12.07;;;11.37;;
17449;SDS011;8842;51.244;7.102;2023-06-14T05:39:22;11.87;;;11.23;;
17449;SDS011;8842;51.244;7.102;2023-06-14T05:44:27;12.53;;;11.83;;
17449;SDS011;8842;51.244;7.102;2023-06-14T05:49:31;12.23;;;11.53;;
17449;SDS011;8842;51.244;7.102;2023-06-14T05:54:35;12.40;;;11.70;;
17449;SDS011;8842;51.244;7.102;2023-06-14T05:59:39;13.27;;;12.33;;
17449;SDS011;8842;51.244;7.102;2023-06-14T06:04:43;12.30;;;11.60;;
17449;SDS011;8842;51.244;7.102;2023-06-14T06:09:47;12.10;;;11.50;;
17449;SDS011;8842;51.244;7.102;2023-06-14T06:14:51;12.20;;;11.50;;
17449;SDS011;8842;51.244;7.102;2023-06-14T06:19:55;12.10;;;11.40;;
17449;SDS011;8842;51.244;7.102;2023-06-14T06:24:59;11.33;;;10.73;;
17449;SDS011;8842;51.244;7.102;2023-06-14T06:30:04;11.47;;;10.87;;
17449;SDS011;8842;51.244;7.102;2023-06-14T06:35:09;11.97;;;11.27;;
17449;SDS011;8842;51.244;7.102;2023-06-14T06:40:13;13.47;;;11.73;;
17449;SDS011;8842;51.244;7.102;2023-06-14T06:45:18;11.90;;;11.30;;
17449;SDS011;8842;51.244;7.102;2023-06-14T06:50:22;12.10;;;11.47;;
17449;SDS011;8842;51.244;7.102;2023-06-14T06:55:27;11.43;;;10.80;;
17449;SDS011;8842;51.244;7.102;2023-06-14T07:00:31;11.60;;;11.00;;
17449;SDS011;8842;51.244;7.102;2023-06-14T07:05:35;11.50;;;10.87;;
17449;SDS011;8842;51.244;7.102;2023-06-14T07:10:39;11.00;;;10.40;;
17449;SDS011;8842;51.244;7.102;2023-06-14T07:15:43;11.40;;;10.80;;
17449;SDS011;8842;51.244;7.102;2023-06-14T07:20:47;11.13;;;10.53;;
17449;SDS011;8842;51.244;7.102;2023-06-14T07:25:52;10.90;;;10.30;;
17449;SDS011;8842;51.244;7.102;2023-06-14T07:30:56;10.90;;;10.30;;
17449;SDS011;8842;51.244;7.102;2023-06-14T07:36:00;11.07;;;10.47;;
17449;SDS011;8842;51.244;7.102;2023-06-14T07:41:05;11.53;;;10.93;;
17449;SDS011;8842;51.244;7.102;2023-06-14T07:46:09;11.23;;;10.63;;
17449;SDS011;8842;51.244;7.102;2023-06-14T07:51:13;11.27;;;10.63;;
17449;SDS011;8842;51.244;7.102;2023-06-14T07:56:18;11.20;;;10.60;;
17449;SDS011;8842;51.244;7.102;2023-06-14T08:01:23;11.33;;;10.72;;
17449;SDS011;8842;51.244;7.102;2023-06-14T08:06:28;11.15;;;10.55;;
17449;SDS011;8842;51.244;7.102;2023-06-14T08:11:33;11.23;;;10.63;;
17449;SDS011;8842;51.244;7.102;2023-06-14T08:16:37;12.33;;;10.90;;
17449;SDS011;8842;51.244;7.102;2023-06-14T08:21:41;11.50;;;10.90;;
17449;SDS011;8842;51.244;7.102;2023-06-14T08:26:46;11.80;;;11.20;;
17449;SDS011;8842;51.244;7.102;2023-06-14T08:31:50;11.78;;;11.18;;
17449;SDS011;8842;51.244;7.102;2023-06-14T08:36:54;12.78;;;12.07;;
17449;SDS011;8842;51.244;7.102;2023-06-14T08:41:58;11.75;;;11.15;;
17449;SDS011;8842;51.244;7.102;2023-06-14T08:47:05;11.63;;;11.03;;
17449;SDS011;8842;51.244;7.102;2023-06-14T08:52:10;10.88;;;10.28;;
17449;SDS011;8842;51.244;7.102;2023-06-14T08:57:16;11.20;;;10.60;;
17449;SDS011;8842;51.244;7.102;2023-06-14T09:02:22;10.88;;;10.28;;
17449;SDS011;8842;51.244;7.102;2023-06-14T09:07:27;10.28;;;9.78;;
17449;SDS011;8842;51.244;7.102;2023-06-14T09:12:32;11.75;;;11.15;;
17449;SDS011;8842;51.244;7.102;2023-06-14T09:17:36;11.15;;;10.55;;
17449;SDS011;8842;51.244;7.102;2023-06-14T09:22:40;10.80;;;10.20;;
17449;SDS011;8842;51.244;7.102;2023-06-14T09:27:45;10.50;;;10.00;;
17449;SDS011;8842;51.244;7.102;2023-06-14T09:32:50;10.80;;;10.20;;
17449;SDS011;8842;51.244;7.102;2023-06-14T09:37:55;10.80;;;10.20;;
17449;SDS011;8842;51.244;7.102;2023-06-14T09:42:59;10.80;;;10.20;;
17449;SDS011;8842;51.244;7.102;2023-06-14T09:48:03;11.05;;;10.45;;
17449;SDS011;8842;51.244;7.102;2023-06-14T09:53:10;10.80;;;10.20;;
17449;SDS011;8842;51.244;7.102;2023-06-14T09:58:15;13.90;;;10.20;;
17449;SDS011;8842;51.244;7.102;2023-06-14T10:03:24;10.70;;;10.10;;
17449;SDS011;8842;51.244;7.102;2023-06-14T10:08:30;10.60;;;10.00;;
17449;SDS011;8842;51.244;7.102;2023-06-14T10:13:36;10.70;;;10.10;;
17449;SDS011;8842;51.244;7.102;2023-06-14T10:18:43;10.40;;;9.90;;
17449;SDS011;8842;51.244;7.102;2023-06-14T10:23:50;11.00;;;10.40;;
17449;SDS011;8842;51.244;7.102;2023-06-14T10:28:59;11.30;;;10.70;;
17449;SDS011;8842;51.244;7.102;2023-06-14T10:34:04;10.00;;;9.50;;
17449;SDS011;8842;51.244;7.102;2023-06-14T10:39:10;10.50;;;9.95;;
17449;SDS011;8842;51.244;7.102;2023-06-14T10:44:33;10.95;;;10.35;;
17449;SDS011;8842;51.244;7.102;2023-06-14T10:49:40;11.00;;;10.40;;
17449;SDS011;8842;51.244;7.102;2023-06-14T11:00:28;10.85;;;10.25;;
17449;SDS011;8842;51.244;7.102;2023-06-14T11:05:39;11.28;;;10.68;;
17449;SDS011;8842;51.244;7.102;2023-06-14T11:10:54;11.40;;;10.80;;
17449;SDS011;8842;51.244;7.102;2023-06-14T11:16:02;11.30;;;10.70;;
17449;SDS011;8842;51.244;7.102;2023-06-14T11:21:23;11.20;;;10.60;;
17449;SDS011;8842;51.244;7.102;2023-06-14T11:26:30;10.30;;;9.80;;
17449;SDS011;8842;51.244;7.102;2023-06-14T11:31:43;9.90;;;9.30;;
17449;SDS011;8842;51.244;7.102;2023-06-14T11:36:48;9.73;;;9.23;;
17449;SDS011;8842;51.244;7.102;2023-06-14T11:42:00;11.00;;;10.40;;
17449;SDS011;8842;51.244;7.102;2023-06-14T11:47:06;11.05;;;10.45;;
17449;SDS011;8842;51.244;7.102;2023-06-14T11:52:18;10.90;;;10.30;;
17449;SDS011;8842;51.244;7.102;2023-06-14T11:57:22;11.15;;;10.48;;
17449;SDS011;8842;51.244;7.102;2023-06-14T12:02:34;10.53;;;10.03;;
17449;SDS011;8842;51.244;7.102;2023-06-14T12:07:38;10.30;;;9.80;;
17449;SDS011;8842;51.244;7.102;2023-06-14T12:12:49;10.75;;;10.05;;
17449;SDS011;8842;51.244;7.102;2023-06-14T12:17:53;10.00;;;9.50;;
17449;SDS011;8842;51.244;7.102;2023-06-14T12:23:05;10.88;;;10.28;;
17449;SDS011;8842;51.244;7.102;2023-06-14T12:28:11;10.20;;;9.70;;
17449;SDS011;8842;51.244;7.102;2023-06-14T12:33:15;9.90;;;9.40;;
17449;SDS011;8842;51.244;7.102;2023-06-14T12:38:27;10.63;;;10.03;;
17449;SDS011;8842;51.244;7.102;2023-06-14T12:43:31;10.48;;;9.80;;
17449;SDS011;8842;51.244;7.102;2023-06-14T12:48:42;10.00;;;9.50;;
17449;SDS011;8842;51.244;7.102;2023-06-14T12:53:46;9.88;;;9.35;;
17449;SDS011;8842;51.244;7.102;2023-06-14T12:58:58;9.78;;;9.28;;
17449;SDS011;8842;51.244;7.102;2023-06-14T13:04:02;9.80;;;9.30;;
17449;SDS011;8842;51.244;7.102;2023-06-14T13:09:14;10.28;;;9.63;;
17449;SDS011;8842;51.244;7.102;2023-06-14T13:14:18;10.20;;;9.70;;
17449;SDS011;8842;51.244;7.102;2023-06-14T13:19:43;10.30;;;9.80;;
17449;SDS011;8842;51.244;7.102;2023-06-14T13:24:48;10.80;;;10.20;;
17449;SDS011;8842;51.244;7.102;2023-06-14T13:29:52;11.10;;;10.50;;
17449;SDS011;8842;51.244;7.102;2023-06-14T13:34:56;10.15;;;9.65;;
17449;SDS011;8842;51.244;7.102;2023-06-14T13:40:00;10.90;;;10.30;;
17449;SDS011;8842;51.244;7.102;2023-06-14T13:45:12;10.25;;;9.65;;
17449;SDS011;8842;51.244;7.102;2023-06-14T13:50:16;10.50;;;10.00;;
17449;SDS011;8842;51.244;7.102;2023-06-14T13:55:28;11.40;;;10.70;;
17449;SDS011;8842;51.244;7.102;2023-06-14T14:00:32;10.68;;;10.08;;
17449;SDS011;8842;51.244;7.102;2023-06-14T14:05:44;11.10;;;10.50;;
17449;SDS011;8842;51.244;7.102;2023-06-14T14:10:48;10.80;;;10.20;;
17449;SDS011;8842;51.244;7.102;2023-06-14T14:15:52;11.33;;;10.55;;
17449;SDS011;8842;51.244;7.102;2023-06-14T14:20:57;10.60;;;10.00;;
17449;SDS011;8842;51.244;7.102;2023-06-14T14:26:01;10.03;;;9.53;;
17449;SDS011;8842;51.244;7.102;2023-06-14T14:31:12;10.05;;;9.55;;
17449;SDS011;8842;51.244;7.102;2023-06-14T14:36:16;10.40;;;9.80;;
17449;SDS011;8842;51.244;7.102;2023-06-14T14:41:28;10.00;;;9.45;;
17449;SDS011;8842;51.244;7.102;2023-06-14T14:46:32;10.05;;;9.55;;
17449;SDS011;8842;51.244;7.102;2023-06-14T14:51:44;9.88;;;9.38;;
17449;SDS011;8842;51.244;7.102;2023-06-14T14:56:48;10.75;;;10.15;;
17449;SDS011;8842;51.244;7.102;2023-06-14T15:01:59;10.07;;;9.57;;
17449;SDS011;8842;51.244;7.102;2023-06-14T15:12:14;10.88;;;10.28;;
17449;SDS011;8842;51.244;7.102;2023-06-14T15:17:19;10.70;;;10.10;;
17449;SDS011;8842;51.244;7.102;2023-06-14T15:22:30;10.20;;;9.70;;
17449;SDS011;8842;51.244;7.102;2023-06-14T15:27:34;9.33;;;8.83;;
17449;SDS011;8842;51.244;7.102;2023-06-14T15:32:46;8.60;;;8.10;;
17449;SDS011;8842;51.244;7.102;2023-06-14T15:37:50;8.50;;;8.10;;
17449;SDS011;8842;51.244;7.102;2023-06-14T15:43:02;9.20;;;8.70;;
17449;SDS011;8842;51.244;7.102;2023-06-14T15:48:06;10.20;;;9.60;;
17449;SDS011;8842;51.244;7.102;2023-06-14T15:53:18;10.32;;;9.70;;
17449;SDS011;8842;51.244;7.102;2023-06-14T15:58:23;10.90;;;10.20;;
17449;SDS011;8842;51.244;7.102;2023-06-14T16:03:35;10.40;;;9.80;;
17449;SDS011;8842;51.244;7.102;2023-06-14T16:08:39;10.30;;;9.70;;
17449;SDS011;8842;51.244;7.102;2023-06-14T16:13:53;10.20;;;9.60;;
17449;SDS011;8842;51.244;7.102;2023-06-14T16:18:58;9.48;;;8.98;;
17449;SDS011;8842;51.244;7.102;2023-06-14T16:24:02;9.55;;;9.05;;
17449;SDS011;8842;51.244;7.102;2023-06-14T16:29:16;8.98;;;8.58;;
17449;SDS011;8842;51.244;7.102;2023-06-14T16:34:20;9.20;;;8.70;;
17449;SDS011;8842;51.244;7.102;2023-06-14T16:39:25;10.08;;;9.48;;
17449;SDS011;8842;51.244;7.102;2023-06-14T16:44:29;9.35;;;8.85;;
17449;SDS011;8842;51.244;7.102;2023-06-14T16:49:41;9.50;;;9.00;;
17449;SDS011;8842;51.244;7.102;2023-06-14T16:54:45;9.10;;;8.60;;
17449;SDS011;8842;51.244;7.102;2023-06-14T16:59:57;9.50;;;8.90;;
17449;SDS011;8842;51.244;7.102;2023-06-14T17:05:01;9.80;;;9.30;;
17449;SDS011;8842;51.244;7.102;2023-06-14T17:10:12;9.58;;;9.08;;
17449;SDS011;8842;51.244;7.102;2023-06-14T17:15:17;9.63;;;9.00;;
17449;SDS011;8842;51.244;7.102;2023-06-14T17:20:29;9.85;;;9.25;;
17449;SDS011;8842;51.244;7.102;2023-06-14T17:25:33;9.10;;;8.65;;
17449;SDS011;8842;51.244;7.102;2023-06-14T17:30:45;9.38;;;8.88;;
17449;SDS011;8842;51.244;7.102;2023-06-14T17:35:49;9.73;;;9.23;;
17449;SDS011;8842;51.244;7.102;2023-06-14T17:41:03;9.30;;;8.80;;
17449;SDS011;8842;51.244;7.102;2023-06-14T17:46:10;10.32;;;9.48;;
17449;SDS011;8842;51.244;7.102;2023-06-14T17:51:22;9.65;;;9.15;;
17449;SDS011;8842;51.244;7.102;2023-06-14T17:56:26;9.90;;;9.35;;
17449;SDS011;8842;51.244;7.102;2023-06-14T18:01:30;9.45;;;8.85;;
17449;SDS011;8842;51.244;7.102;2023-06-14T18:06:34;9.35;;;8.85;;
17449;SDS011;8842;51.244;7.102;2023-06-14T18:11:38;9.25;;;8.75;;
17449;SDS011;8842;51.244;7.102;2023-06-14T18:16:42;9.43;;;8.93;;
17449;SDS011;8842;51.244;7.102;2023-06-14T18:21:47;9.38;;;8.88;;
17449;SDS011;8842;51.244;7.102;2023-06-14T18:27:01;9.10;;;8.70;;
17449;SDS011;8842;51.244;7.102;2023-06-14T18:32:08;9.73;;;9.23;;
17449;SDS011;8842;51.244;7.102;2023-06-14T18:37:12;9.20;;;8.70;;
17449;SDS011;8842;51.244;7.102;2023-06-14T18:42:16;9.30;;;8.80;;
17449;SDS011;8842;51.244;7.102;2023-06-14T18:47:20;9.40;;;8.90;;
17449;SDS011;8842;51.244;7.102;2023-06-14T18:52:24;9.17;;;8.67;;
17449;SDS011;8842;51.244;7.102;2023-06-14T18:57:36;9.03;;;8.60;;
17449;SDS011;8842;51.244;7.102;2023-06-14T19:02:40;9.63;;;9.03;;
17449;SDS011;8842;51.244;7.102;2023-06-14T19:07:44;9.57;;;9.07;;
17449;SDS011;8842;51.244;7.102;2023-06-14T19:12:48;9.20;;;8.70;;
17449;SDS011;8842;51.244;7.102;2023-06-14T19:18:00;9.90;;;9.40;;
17449;SDS011;8842;51.244;7.102;2023-06-14T19:23:06;9.40;;;8.90;;
17449;SDS011;8842;51.244;7.102;2023-06-14T19:28:11;9.55;;;9.05;;
17449;SDS011;8842;51.244;7.102;2023-06-14T19:33:15;9.80;;;9.30;;
17449;SDS011;8842;51.244;7.102;2023-06-14T19:38:19;9.93;;;9.43;;
17449;SDS011;8842;51.244;7.102;2023-06-14T19:43:23;9.67;;;9.17;;
17449;SDS011;8842;51.244;7.102;2023-06-14T19:48:28;10.03;;;9.53;;
17449;SDS011;8842;51.244;7.102;2023-06-14T19:53:32;10.43;;;9.93;;
17449;SDS011;8842;51.244;7.102;2023-06-14T19:58:36;9.90;;;9.33;;
17449;SDS011;8842;51.244;7.102;2023-06-14T20:03:40;9.87;;;9.37;;
17449;SDS011;8842;51.244;7.102;2023-06-14T20:08:46;10.20;;;9.70;;
17449;SDS011;8842;51.244;7.102;2023-06-14T20:13:58;10.00;;;9.50;;
17449;SDS011;8842;51.244;7.102;2023-06-14T20:19:02;10.10;;;9.50;;
17449;SDS011;8842;51.244;7.102;2023-06-14T20:24:14;10.30;;;9.80;;
17449;SDS011;8842;51.244;7.102;2023-06-14T20:29:18;10.17;;;9.67;;
17449;SDS011;8842;51.244;7.102;2023-06-14T20:34:23;10.20;;;9.70;;
17449;SDS011;8842;51.244;7.102;2023-06-14T20:39:27;10.10;;;9.60;;
17449;SDS011;8842;51.244;7.102;2023-06-14T20:44:31;9.70;;;9.20;;
17449;SDS011;8842;51.244;7.102;2023-06-14T20:49:42;10.00;;;9.50;;
17449;SDS011;8842;51.244;7.102;2023-06-14T20:54:48;10.43;;;9.83;;
17449;SDS011;8842;51.244;7.102;2023-06-14T20:59:59;10.30;;;9.70;;
17449;SDS011;8842;51.244;7.102;2023-06-14T21:05:07;9.90;;;9.30;;
17449;SDS011;8842;51.244;7.102;2023-06-14T21:10:19;9.70;;;9.20;;
17449;SDS011;8842;51.244;7.102;2023-06-14T21:15:23;9.87;;;9.37;;
17449;SDS011;8842;51.244;7.102;2023-06-14T21:20:28;9.87;;;9.37;;
17449;SDS011;8842;51.244;7.102;2023-06-14T21:25:32;10.00;;;9.50;;
17449;SDS011;8842;51.244;7.102;2023-06-14T21:30:36;10.10;;;9.60;;
17449;SDS011;8842;51.244;7.102;2023-06-14T21:35:40;10.30;;;9.80;;
17449;SDS011;8842;51.244;7.102;2023-06-14T21:40:44;10.10;;;9.60;;
17449;SDS011;8842;51.244;7.102;2023-06-14T21:45:48;9.90;;;9.40;;
17449;SDS011;8842;51.244;7.102;2023-06-14T21:51:00;11.00;;;10.30;;
17449;SDS011;8842;51.244;7.102;2023-06-14T21:56:04;10.57;;;9.97;;
17449;SDS011;8842;51.244;7.102;2023-06-14T22:01:08;10.30;;;9.60;;
17449;SDS011;8842;51.244;7.102;2023-06-14T22:06:12;10.23;;;9.73;;
17449;SDS011;8842;51.244;7.102;2023-06-14T22:11:24;10.20;;;9.70;;
17449;SDS011;8842;51.244;7.102;2023-06-14T22:16:30;10.63;;;9.77;;
17449;SDS011;8842;51.244;7.102;2023-06-14T22:21:35;10.50;;;9.60;;
17449;SDS011;8842;51.244;7.102;2023-06-14T22:26:40;9.93;;;9.43;;
17449;SDS011;8842;51.244;7.102;2023-06-14T22:31:47;10.20;;;9.50;;
17449;SDS011;8842;51.244;7.102;2023-06-14T22:36:59;10.30;;;9.80;;
17449;SDS011;8842;51.244;7.102;2023-06-14T22:42:06;9.50;;;9.00;;
17449;SDS011;8842;51.244;7.102;2023-06-14T22:47:18;9.73;;;9.23;;
17449;SDS011;8842;51.244;7.102;2023-06-14T22:52:23;9.93;;;9.43;;
17449;SDS011;8842;51.244;7.102;2023-06-14T22:57:29;9.53;;;9.03;;
17449;SDS011;8842;51.244;7.102;2023-06-14T23:02:33;9.93;;;9.43;;
17449;SDS011;8842;51.244;7.102;2023-06-14T23:07:44;10.17;;;9.60;;
17449;SDS011;8842;51.244;7.102;2023-06-14T23:12:49;9.60;;;9.10;;
17449;SDS011;8842;51.244;7.102;2023-06-14T23:17:53;9.90;;;9.40;;
17449;SDS011;8842;51.244;7.102;2023-06-14T23:23:04;10.00;;;9.50;;
17449;SDS011;8842;51.244;7.102;2023-06-14T23:28:08;10.23;;;9.73;;
17449;SDS011;8842;51.244;7.102;2023-06-14T23:33:20;10.20;;;9.60;;
17449;SDS011;8842;51.244;7.102;2023-06-14T23:38:25;10.10;;;9.60;;
17449;SDS011;8842;51.244;7.102;2023-06-14T23:43:31;10.20;;;9.70;;
17449;SDS011;8842;51.244;7.102;2023-06-14T23:48:43;9.70;;;9.17;;
17449;SDS011;8842;51.244;7.102;2023-06-14T23:53:47;10.10;;;9.60;;
17449;SDS011;8842;51.244;7.102;2023-06-14T23:58:58;9.93;;;9.43;;
